createdAt,value
2022-10-12T00:00:50.832Z,12.10
2022-10-12T00:03:19.430Z,12.00
2022-10-12T00:05:47.806Z,11.90
2022-10-12T00:08:17.233Z,11.90
2022-10-12T00:10:45.800Z,11.90
2022-10-12T00:13:14.012Z,11.80
2022-10-12T00:15:43.394Z,11.90
2022-10-12T00:18:11.393Z,11.90
2022-10-12T00:20:39.359Z,11.90
2022-10-12T00:23:08.214Z,11.80
2022-10-12T00:25:37.715Z,11.80
2022-10-12T00:28:06.156Z,11.80
2022-10-12T00:30:34.663Z,11.80
2022-10-12T00:33:05.573Z,11.80
2022-10-12T00:35:33.531Z,11.80
2022-10-12T00:38:01.474Z,11.70
2022-10-12T00:40:29.475Z,11.60
2022-10-12T00:43:00.527Z,11.60
2022-10-12T00:45:28.597Z,11.60
2022-10-12T00:47:59.470Z,11.50
2022-10-12T00:50:33.899Z,11.50
2022-10-12T00:53:06.571Z,11.40
2022-10-12T00:55:38.546Z,11.30
2022-10-12T00:58:08.475Z,11.30
2022-10-12T01:00:38.029Z,11.20
2022-10-12T01:03:09.201Z,11.10
2022-10-12T01:05:41.045Z,11.00
2022-10-12T01:08:09.135Z,10.90
2022-10-12T01:10:37.288Z,10.90
2022-10-12T01:13:06.214Z,10.80
2022-10-12T01:15:37.937Z,10.70
2022-10-12T01:18:12.111Z,10.60
2022-10-12T01:21:01.514Z,10.70
2022-10-12T01:24:01.891Z,10.70
2022-10-12T01:27:04.630Z,10.80
2022-10-12T01:29:55.763Z,10.80
2022-10-12T01:32:29.461Z,10.90
2022-10-12T01:35:02.380Z,11.00
2022-10-12T01:37:40.007Z,11.00
2022-10-12T01:40:13.832Z,11.00
2022-10-12T01:42:44.547Z,11.10
2022-10-12T01:45:17.162Z,11.00
2022-10-12T01:47:49.487Z,11.00
2022-10-12T01:50:18.782Z,11.00
2022-10-12T01:52:58.709Z,11.00
2022-10-12T01:55:37.685Z,11.00
2022-10-12T01:58:27.633Z,10.90
2022-10-12T02:01:05.875Z,10.90
2022-10-12T02:03:41.379Z,10.80
2022-10-12T02:06:13.553Z,10.90
2022-10-12T02:08:46.189Z,11.00
2022-10-12T02:11:16.752Z,10.90
2022-10-12T02:13:48.278Z,10.90
2022-10-12T02:16:20.843Z,10.80
2022-10-12T02:18:53.026Z,10.90
2022-10-12T02:21:25.183Z,10.90
2022-10-12T02:23:55.243Z,10.90
2022-10-12T02:26:23.656Z,10.90
2022-10-12T02:28:51.835Z,10.90
2022-10-12T02:31:29.416Z,10.90
2022-10-12T02:34:01.830Z,10.90
2022-10-12T02:36:37.479Z,10.90
2022-10-12T02:39:10.501Z,11.00
2022-10-12T02:41:44.724Z,10.90
2022-10-12T02:44:16.250Z,10.90
2022-10-12T02:46:47.346Z,10.90
2022-10-12T02:49:16.791Z,10.80
2022-10-12T02:51:46.175Z,10.70
2022-10-12T02:54:14.421Z,10.60
2022-10-12T02:56:46.017Z,10.60
2022-10-12T02:59:14.762Z,10.50
2022-10-12T03:01:42.757Z,10.30
2022-10-12T03:04:12.237Z,10.20
2022-10-12T03:06:40.169Z,10.20
2022-10-12T03:09:08.147Z,10.40
2022-10-12T03:11:37.624Z,10.60
2022-10-12T03:14:06.357Z,10.80
2022-10-12T03:16:34.292Z,10.90
2022-10-12T03:19:03.507Z,11.00
2022-10-12T03:21:32.867Z,11.10
2022-10-12T03:24:01.074Z,11.20
2022-10-12T03:26:29.103Z,11.30
2022-10-12T03:28:57.180Z,11.30
2022-10-12T03:31:25.275Z,11.30
2022-10-12T03:33:53.268Z,11.30
2022-10-12T03:36:21.250Z,11.30
2022-10-12T03:38:50.635Z,11.30
2022-10-12T03:41:18.652Z,11.30
2022-10-12T03:43:47.293Z,11.40
2022-10-12T03:46:15.619Z,11.40
2022-10-12T03:48:43.626Z,11.40
2022-10-12T03:51:11.499Z,11.40
2022-10-12T03:53:45.024Z,11.40
2022-10-12T03:56:14.918Z,11.50
2022-10-12T03:58:42.889Z,11.50
2022-10-12T04:01:11.264Z,11.50
2022-10-12T04:03:39.287Z,11.50
2022-10-12T04:06:07.864Z,11.50
2022-10-12T04:08:35.855Z,11.60
2022-10-12T04:11:03.892Z,11.60
2022-10-12T04:13:33.255Z,11.70
2022-10-12T04:16:04.051Z,11.70
2022-10-12T04:18:32.665Z,11.70
2022-10-12T04:21:00.755Z,11.70
2022-10-12T04:23:28.790Z,11.70
2022-10-12T04:25:56.697Z,11.70
2022-10-12T04:28:24.666Z,11.70
2022-10-12T04:30:54.039Z,11.80
2022-10-12T04:33:22.032Z,11.70
2022-10-12T04:35:49.963Z,11.70
2022-10-12T04:38:18.306Z,11.70
2022-10-12T04:40:48.076Z,11.80
2022-10-12T04:43:16.662Z,11.80
2022-10-12T04:45:44.962Z,11.80
2022-10-12T04:48:14.333Z,11.80
2022-10-12T04:50:42.300Z,11.80
2022-10-12T04:53:10.184Z,11.90
2022-10-12T04:55:38.854Z,11.90
2022-10-12T04:58:06.810Z,11.90
2022-10-12T05:00:34.935Z,11.80
2022-10-12T05:03:02.967Z,11.80
2022-10-12T05:05:34.327Z,11.90
2022-10-12T05:08:02.353Z,11.90
2022-10-12T05:10:30.316Z,11.80
2022-10-12T05:12:58.284Z,11.80
2022-10-12T05:15:26.423Z,11.80
2022-10-12T05:17:54.494Z,11.80
2022-10-12T05:20:22.486Z,11.90
2022-10-12T05:22:52.354Z,11.90
2022-10-12T05:25:20.592Z,11.90
2022-10-12T05:27:48.645Z,11.90
2022-10-12T05:30:16.902Z,11.90
2022-10-12T05:32:44.898Z,11.90
2022-10-12T05:35:12.890Z,11.90
2022-10-12T05:37:41.226Z,11.90
2022-10-12T05:40:12.222Z,11.90
2022-10-12T05:42:40.463Z,11.80
2022-10-12T05:45:09.340Z,11.80
2022-10-12T05:47:37.671Z,11.80
2022-10-12T05:50:06.878Z,11.80
2022-10-12T05:52:35.001Z,11.80
2022-10-12T05:55:03.162Z,11.90
2022-10-12T05:57:32.614Z,11.90
2022-10-12T06:00:00.633Z,12.00
2022-10-12T06:02:28.612Z,12.00
2022-10-12T06:04:56.545Z,12.10
2022-10-12T06:07:24.578Z,12.10
2022-10-12T06:09:52.663Z,12.10
2022-10-12T06:12:20.744Z,12.10
2022-10-12T06:14:50.148Z,12.10
2022-10-12T06:17:18.164Z,12.10
2022-10-12T06:19:46.381Z,12.20
2022-10-12T06:22:14.393Z,12.20
2022-10-12T06:24:45.418Z,12.20
2022-10-12T06:27:14.220Z,12.30
2022-10-12T06:29:42.310Z,12.30
2022-10-12T06:32:17.251Z,12.40
2022-10-12T06:34:46.563Z,12.40
2022-10-12T06:37:36.956Z,12.30
2022-10-12T06:40:02.766Z,12.40
2022-10-12T06:42:30.779Z,12.50
2022-10-12T06:44:58.873Z,12.40
2022-10-12T06:47:28.360Z,12.50
2022-10-12T06:49:56.420Z,12.50
2022-10-12T06:52:24.557Z,12.50
2022-10-12T06:54:52.609Z,12.50
2022-10-12T06:57:20.639Z,12.50
2022-10-12T06:59:48.671Z,12.50
2022-10-12T07:02:16.722Z,12.50
2022-10-12T07:04:46.247Z,12.60
2022-10-12T07:07:14.273Z,12.70
2022-10-12T07:09:42.618Z,12.70
2022-10-12T07:12:10.827Z,12.70
2022-10-12T07:14:38.922Z,12.80
2022-10-12T07:17:07.005Z,12.90
2022-10-12T07:19:35.202Z,13.00
2022-10-12T07:22:04.769Z,13.00
2022-10-12T07:24:36.512Z,13.00
2022-10-12T07:27:05.854Z,13.00
2022-10-12T07:29:34.625Z,13.10
2022-10-12T07:32:03.112Z,13.20
2022-10-12T07:34:31.868Z,13.20
2022-10-12T07:37:02.651Z,13.20
2022-10-12T07:39:32.334Z,13.30
2022-10-12T07:42:00.495Z,13.40
2022-10-12T07:44:30.489Z,13.40
2022-10-12T07:46:58.566Z,13.40
2022-10-12T07:49:29.834Z,13.40
2022-10-12T07:51:58.225Z,13.40
2022-10-12T07:54:29.333Z,13.40
2022-10-12T07:57:01.390Z,13.40
2022-10-12T07:59:29.636Z,13.30
2022-10-12T08:01:57.701Z,13.30
2022-10-12T08:04:25.769Z,13.40
2022-10-12T08:06:53.964Z,13.40
2022-10-12T08:09:21.993Z,13.50
2022-10-12T08:11:49.985Z,13.50
2022-10-12T08:14:19.789Z,13.60
2022-10-12T08:16:47.956Z,13.70
2022-10-12T08:19:16.249Z,13.70
2022-10-12T08:21:44.238Z,13.90
2022-10-12T08:24:12.513Z,14.10
2022-10-12T08:26:40.683Z,14.20
2022-10-12T08:29:10.555Z,14.40
2022-10-12T08:31:41.065Z,14.40
2022-10-12T08:34:09.731Z,14.50
2022-10-12T08:36:38.669Z,14.50
2022-10-12T08:39:08.679Z,14.60
2022-10-12T08:41:48.869Z,14.60
2022-10-12T08:44:49.560Z,14.70
2022-10-12T08:47:22.971Z,14.80
2022-10-12T08:49:52.786Z,14.70
2022-10-12T08:52:29.523Z,14.60
2022-10-12T08:55:03.394Z,14.50
2022-10-12T08:57:32.801Z,14.70
2022-10-12T09:00:01.662Z,14.70
2022-10-12T09:02:48.113Z,14.80
2022-10-12T09:05:22.940Z,14.80
2022-10-12T09:07:59.273Z,14.80
2022-10-12T09:10:38.595Z,14.80
2022-10-12T09:13:18.905Z,14.80
2022-10-12T09:15:51.562Z,14.70
2022-10-12T09:18:26.882Z,14.60
2022-10-12T09:20:55.916Z,14.50
2022-10-12T09:23:26.508Z,14.50
2022-10-12T09:25:58.158Z,14.60
2022-10-12T09:28:36.017Z,14.70
2022-10-12T09:31:16.647Z,14.70
2022-10-12T09:33:52.634Z,14.70
2022-10-12T09:36:23.223Z,14.80
2022-10-12T09:38:52.227Z,14.90
2022-10-12T09:41:23.040Z,14.80
2022-10-12T09:43:53.766Z,14.80
2022-10-12T09:46:29.152Z,14.80
2022-10-12T09:49:01.696Z,14.80
2022-10-12T09:51:31.287Z,14.90
2022-10-12T09:54:03.753Z,14.90
2022-10-12T09:56:39.784Z,15.00
2022-10-12T09:59:22.064Z,15.00
2022-10-12T10:02:00.241Z,14.80
2022-10-12T10:04:32.936Z,14.70
2022-10-12T10:07:19.860Z,14.70
2022-10-12T10:10:11.439Z,14.80
2022-10-12T10:12:45.260Z,14.90
2022-10-12T10:15:25.191Z,15.10
2022-10-12T10:17:55.910Z,15.00
2022-10-12T10:20:33.537Z,15.00
2022-10-12T10:23:04.744Z,15.10
2022-10-12T10:25:34.311Z,15.20
2022-10-12T10:28:23.960Z,15.40
2022-10-12T10:31:02.470Z,15.50
2022-10-12T10:33:31.595Z,15.40
2022-10-12T10:36:04.139Z,15.20
2022-10-12T10:38:35.190Z,15.30
2022-10-12T10:41:07.768Z,15.30
2022-10-12T10:43:36.860Z,15.50
2022-10-12T10:46:06.432Z,15.70
2022-10-12T10:48:51.063Z,15.80
2022-10-12T10:51:21.123Z,15.70
2022-10-12T10:53:51.216Z,15.80
2022-10-12T10:56:24.135Z,15.60
2022-10-12T10:58:56.424Z,15.70
2022-10-12T11:01:32.933Z,15.70
2022-10-12T11:04:04.305Z,15.80
2022-10-12T11:06:40.864Z,15.80
2022-10-12T11:09:14.481Z,15.80
2022-10-12T11:11:45.359Z,15.80
2022-10-12T11:14:17.225Z,15.90
2022-10-12T11:16:48.407Z,16.00
2022-10-12T11:19:32.830Z,15.80
2022-10-12T11:22:06.685Z,15.90
2022-10-12T11:24:40.941Z,16.00
2022-10-12T11:27:13.771Z,16.00
2022-10-12T11:29:42.376Z,15.90
2022-10-12T11:32:23.770Z,15.80
2022-10-12T11:34:56.310Z,15.80
2022-10-12T11:37:31.416Z,15.80
2022-10-12T11:40:01.330Z,15.90
2022-10-12T11:42:33.391Z,15.90
2022-10-12T11:45:06.540Z,16.20
2022-10-12T11:47:41.743Z,16.30
2022-10-12T11:50:24.920Z,16.10
2022-10-12T11:52:55.900Z,16.10
2022-10-12T11:55:47.494Z,16.30
2022-10-12T11:58:24.354Z,16.30
2022-10-12T12:01:30.907Z,16.40
2022-10-12T12:07:44.509Z,16.20
2022-10-12T12:11:00.494Z,16.20
2022-10-12T12:13:40.375Z,16.20
2022-10-12T12:16:33.799Z,16.20
2022-10-12T12:19:35.951Z,16.20
2022-10-12T12:22:32.758Z,16.30
2022-10-12T12:25:19.172Z,16.50
2022-10-12T12:27:51.180Z,16.50
2022-10-12T12:30:36.359Z,16.60
2022-10-12T12:33:18.095Z,16.70
2022-10-12T12:35:55.233Z,16.80
2022-10-12T12:38:30.234Z,16.80
2022-10-12T12:41:06.526Z,16.80
2022-10-12T12:43:57.879Z,16.90
2022-10-12T12:46:47.031Z,17.10
2022-10-12T12:49:29.408Z,17.00
2022-10-12T12:51:59.802Z,16.80
2022-10-12T12:54:29.143Z,16.60
2022-10-12T12:57:25.141Z,16.50
2022-10-12T13:00:11.712Z,16.60
2022-10-12T13:03:19.085Z,16.70
2022-10-12T13:06:20.679Z,16.70
2022-10-12T13:09:06.577Z,16.90
2022-10-12T13:11:58.918Z,17.20
2022-10-12T13:14:51.909Z,17.20
2022-10-12T13:17:43.599Z,17.30
2022-10-12T13:20:19.620Z,17.30
2022-10-12T13:22:51.668Z,17.20
2022-10-12T13:25:29.367Z,17.10
2022-10-12T13:27:59.142Z,17.20
2022-10-12T13:30:38.189Z,17.10
2022-10-12T13:33:16.548Z,17.10
2022-10-12T13:35:50.062Z,17.00
2022-10-12T13:38:23.962Z,17.10
2022-10-12T13:41:02.117Z,16.80
2022-10-12T13:43:45.035Z,16.70
2022-10-12T13:46:14.970Z,16.60
2022-10-12T13:49:05.187Z,16.50
2022-10-12T13:51:35.527Z,16.50
2022-10-12T13:54:14.804Z,16.50
2022-10-12T13:56:43.408Z,16.40
2022-10-12T13:59:18.832Z,16.40
2022-10-12T14:01:51.888Z,16.20
2022-10-12T14:04:20.332Z,16.10
2022-10-12T14:06:56.280Z,16.00
2022-10-12T14:09:26.561Z,16.00
2022-10-12T14:11:56.713Z,16.00
2022-10-12T14:14:33.591Z,15.90
2022-10-12T14:17:03.536Z,15.80
2022-10-12T14:19:45.121Z,15.80
2022-10-12T14:22:21.725Z,15.80
2022-10-12T14:24:50.715Z,15.90
2022-10-12T14:27:24.987Z,15.80
2022-10-12T14:29:58.243Z,15.80
2022-10-12T14:32:44.184Z,15.80
2022-10-12T14:35:22.318Z,15.80
2022-10-12T14:37:53.207Z,15.80
2022-10-12T14:40:34.053Z,15.80
2022-10-12T14:43:05.136Z,15.80
2022-10-12T14:45:36.216Z,15.80
2022-10-12T14:48:05.479Z,15.70
2022-10-12T14:50:33.998Z,15.70
2022-10-12T14:53:06.619Z,15.70
2022-10-12T14:55:35.131Z,15.70
2022-10-12T14:58:03.674Z,15.60
2022-10-12T15:00:33.705Z,15.60
2022-10-12T15:03:02.270Z,15.60
2022-10-12T15:05:31.759Z,15.60
2022-10-12T15:08:00.529Z,15.50
2022-10-12T15:10:30.093Z,15.50
2022-10-12T15:12:58.206Z,15.40
2022-10-12T15:15:33.679Z,15.40
2022-10-12T15:18:02.070Z,15.30
2022-10-12T15:20:31.592Z,15.30
2022-10-12T15:23:00.431Z,15.30
2022-10-12T15:25:38.711Z,15.30
2022-10-12T15:28:07.078Z,15.20
2022-10-12T15:30:43.409Z,15.10
2022-10-12T15:33:20.419Z,15.00
2022-10-12T15:35:48.396Z,15.00
2022-10-12T15:38:17.013Z,14.90
2022-10-12T15:40:47.110Z,14.90
2022-10-12T15:45:43.157Z,14.70
2022-10-12T15:48:14.131Z,14.60
2022-10-12T15:50:44.415Z,14.50
2022-10-12T15:53:16.846Z,14.60
2022-10-12T15:55:46.271Z,14.50
2022-10-12T15:58:14.714Z,14.30
2022-10-12T16:00:43.560Z,14.20
2022-10-12T16:03:19.069Z,14.00
2022-10-12T16:05:49.356Z,13.80
2022-10-12T16:08:17.421Z,13.70
2022-10-12T16:10:54.160Z,13.60
2022-10-12T16:13:22.296Z,13.40
2022-10-12T16:15:50.500Z,13.30
2022-10-12T16:18:18.933Z,13.20
2022-10-12T16:20:53.796Z,13.10
2022-10-12T16:23:24.876Z,13.30
2022-10-12T16:25:54.855Z,13.20
2022-10-12T16:28:23.789Z,13.10
2022-10-12T16:31:24.268Z,12.90
2022-10-12T16:33:52.379Z,12.70
2022-10-12T16:36:20.399Z,12.60
2022-10-12T16:38:48.369Z,12.60
2022-10-12T16:41:18.709Z,12.70
2022-10-12T16:43:47.209Z,12.70
2022-10-12T16:46:15.129Z,12.80
2022-10-12T16:48:44.455Z,12.90
2022-10-12T16:51:14.216Z,12.90
2022-10-12T16:53:43.761Z,12.70
2022-10-12T16:56:11.931Z,12.60
2022-10-12T16:58:42.448Z,12.50
2022-10-12T17:01:12.048Z,12.30
2022-10-12T17:03:40.191Z,12.20
2022-10-12T17:06:08.892Z,12.20
2022-10-12T17:08:39.193Z,12.10
2022-10-12T17:11:10.850Z,12.00
2022-10-12T17:13:40.131Z,11.90
2022-10-12T17:16:24.620Z,11.80
2022-10-12T17:18:56.833Z,11.80
2022-10-12T17:21:27.741Z,11.70
2022-10-12T17:23:57.178Z,11.60
2022-10-12T17:26:25.318Z,11.60
2022-10-12T17:28:53.440Z,11.50
2022-10-12T17:31:22.985Z,11.60
2022-10-12T17:33:51.224Z,11.60
2022-10-12T17:36:19.363Z,11.80
2022-10-12T17:38:47.355Z,12.10
2022-10-12T17:41:15.390Z,12.30
2022-10-12T17:43:43.448Z,12.40
2022-10-12T17:46:11.759Z,12.50
2022-10-12T17:48:41.241Z,12.50
2022-10-12T17:51:13.554Z,12.50
2022-10-12T17:53:41.957Z,12.50
2022-10-12T17:56:12.649Z,12.50
2022-10-12T17:58:40.628Z,12.50
2022-10-12T18:01:10.575Z,12.50
2022-10-12T18:03:42.866Z,12.60
2022-10-12T18:06:14.414Z,12.60
2022-10-12T18:08:42.866Z,12.70
2022-10-12T18:11:11.753Z,12.70
2022-10-12T18:13:39.834Z,12.80
2022-10-12T18:16:11.507Z,12.80
2022-10-12T18:18:41.804Z,12.80
2022-10-12T18:21:11.548Z,12.70
2022-10-12T18:23:39.543Z,12.70
2022-10-12T18:26:09.334Z,12.80
2022-10-12T18:28:37.653Z,12.80
2022-10-12T18:31:06.018Z,12.80
2022-10-12T18:33:34.875Z,12.80
2022-10-12T18:36:05.743Z,12.80
2022-10-12T18:38:34.143Z,12.70
2022-10-12T18:41:06.581Z,12.70
2022-10-12T18:43:35.150Z,12.70
2022-10-12T18:46:06.759Z,12.70
2022-10-12T18:48:35.101Z,12.70
2022-10-12T18:51:09.873Z,12.70
2022-10-12T18:53:37.870Z,12.70
2022-10-12T18:56:06.623Z,12.80
2022-10-12T18:58:34.865Z,12.70
2022-10-12T19:01:02.990Z,12.80
2022-10-12T19:03:31.123Z,12.90
2022-10-12T19:06:05.440Z,12.90
2022-10-12T19:08:39.850Z,12.90
2022-10-12T19:11:09.252Z,12.90
2022-10-12T19:13:37.646Z,12.90
2022-10-12T19:16:07.822Z,12.90
2022-10-12T19:18:36.379Z,12.80
2022-10-12T19:21:06.369Z,12.80
2022-10-12T19:23:36.136Z,12.90
2022-10-12T19:26:05.909Z,12.90
2022-10-12T19:28:35.030Z,12.90
2022-10-12T19:31:12.190Z,12.90
2022-10-12T19:33:40.268Z,12.80
2022-10-12T19:36:09.579Z,12.80
2022-10-12T19:38:39.075Z,12.80
2022-10-12T19:41:07.519Z,12.70
2022-10-12T19:43:35.844Z,12.80
2022-10-12T19:46:04.976Z,12.80
2022-10-12T19:48:33.222Z,12.70
2022-10-12T19:51:02.080Z,12.70
2022-10-12T19:53:30.857Z,12.70
2022-10-12T19:56:04.776Z,12.70
2022-10-12T19:58:33.303Z,12.60
2022-10-12T20:01:02.328Z,12.60
2022-10-12T20:03:30.791Z,12.60
2022-10-12T20:05:59.352Z,12.60
2022-10-12T20:08:30.151Z,12.50
2022-10-12T20:10:58.232Z,12.40
2022-10-12T20:13:27.538Z,12.40
2022-10-12T20:15:57.203Z,12.30
2022-10-12T20:18:25.612Z,12.20
2022-10-12T20:20:54.235Z,12.20
2022-10-12T20:23:23.357Z,12.20
2022-10-12T20:25:54.336Z,12.20
2022-10-12T20:28:23.014Z,12.10
2022-10-12T20:30:52.533Z,12.00
2022-10-12T20:33:20.631Z,11.80
2022-10-12T20:35:48.794Z,11.70
2022-10-12T20:38:17.627Z,11.60
2022-10-12T20:40:45.899Z,11.60
2022-10-12T20:43:14.194Z,11.70
2022-10-12T20:45:42.516Z,11.70
2022-10-12T20:48:11.872Z,11.70
2022-10-12T20:50:39.975Z,11.90
2022-10-12T20:53:07.983Z,11.90
2022-10-12T20:55:35.995Z,12.00
2022-10-12T20:58:04.056Z,12.00
2022-10-12T21:00:32.346Z,12.10
2022-10-12T21:03:00.416Z,12.00
2022-10-12T21:05:29.770Z,12.10
2022-10-12T21:07:57.785Z,12.10
2022-10-12T21:10:25.790Z,12.00
2022-10-12T21:12:53.787Z,12.00
2022-10-12T21:15:21.787Z,12.00
2022-10-12T21:17:49.767Z,12.00
2022-10-12T21:20:17.950Z,12.00
2022-10-12T21:22:47.609Z,12.10
2022-10-12T21:25:15.644Z,12.00
2022-10-12T21:27:43.692Z,12.10
2022-10-12T21:30:12.445Z,12.10
2022-10-12T21:32:40.437Z,12.00
2022-10-12T21:35:08.995Z,11.90
2022-10-12T21:37:36.952Z,12.00
2022-10-12T21:40:07.782Z,12.10
2022-10-12T21:42:35.733Z,12.00
2022-10-12T21:45:03.821Z,12.00
2022-10-12T21:47:31.850Z,11.90
2022-10-12T21:49:59.834Z,11.90
2022-10-12T21:52:27.836Z,11.80
2022-10-12T21:54:55.837Z,11.80
2022-10-12T21:57:25.198Z,11.70
2022-10-12T21:59:53.509Z,11.60
2022-10-12T22:02:21.523Z,11.60
2022-10-12T22:04:49.814Z,11.50
2022-10-12T22:07:19.835Z,11.60
2022-10-12T22:09:47.841Z,11.60
2022-10-12T22:12:16.220Z,11.50
2022-10-12T22:14:45.872Z,11.50
2022-10-12T22:17:13.879Z,11.50
2022-10-12T22:19:41.881Z,11.30
2022-10-12T22:22:09.798Z,11.20
2022-10-12T22:24:37.746Z,11.10
2022-10-12T22:27:05.810Z,11.10
2022-10-12T22:29:33.935Z,11.10
2022-10-12T22:32:03.357Z,11.00
2022-10-12T22:34:31.467Z,11.00
2022-10-12T22:36:59.506Z,11.00
2022-10-12T22:39:27.611Z,11.00
2022-10-12T22:41:55.541Z,11.10
2022-10-12T22:44:23.616Z,11.00
2022-10-12T22:46:51.706Z,11.00
2022-10-12T22:49:21.128Z,11.00
2022-10-12T22:51:49.220Z,11.00
2022-10-12T22:54:17.222Z,11.00
2022-10-12T22:56:45.224Z,10.80
2022-10-12T22:59:15.291Z,10.80
2022-10-12T23:01:43.350Z,10.70
2022-10-12T23:04:11.326Z,10.50
2022-10-12T23:06:40.650Z,10.40
2022-10-12T23:09:08.617Z,10.30
2022-10-12T23:11:36.696Z,10.30
2022-10-12T23:14:05.899Z,10.30
2022-10-12T23:16:34.084Z,10.30
2022-10-12T23:19:04.747Z,10.30
2022-10-12T23:21:36.098Z,10.40
2022-10-12T23:24:06.589Z,10.50
2022-10-12T23:26:35.349Z,10.50
2022-10-12T23:29:03.350Z,10.60
2022-10-12T23:31:31.608Z,10.60
2022-10-12T23:34:00.856Z,10.60
2022-10-12T23:36:29.224Z,10.60
2022-10-12T23:38:57.404Z,10.50
2022-10-12T23:41:26.751Z,10.50
2022-10-12T23:43:54.662Z,10.30
2022-10-12T23:46:26.125Z,10.20
2022-10-12T23:48:54.049Z,10.10
2022-10-12T23:51:22.028Z,10.00
2022-10-12T23:53:50.200Z,9.90
2022-10-12T23:56:18.483Z,10.00
2022-10-12T23:58:47.895Z,10.20
